createdAt,value
2023-02-18T00:01:44.532Z,100230.42
2023-02-18T00:04:18.844Z,100224.52
2023-02-18T00:06:52.098Z,100231.98
2023-02-18T00:09:26.125Z,100230.36
2023-02-18T00:11:59.821Z,100221.97
2023-02-18T00:14:33.079Z,100225.08
2023-02-18T00:17:06.232Z,100224.69
2023-02-18T00:19:39.526Z,100224.52
2023-02-18T00:22:12.686Z,100217.00
2023-02-18T00:24:46.022Z,100209.16
2023-02-18T00:27:19.403Z,100206.59
2023-02-18T00:29:52.641Z,100203.52
2023-02-18T00:32:25.676Z,100199.69
2023-02-18T00:34:58.773Z,100194.91
2023-02-18T00:37:34.453Z,100198.91
2023-02-18T00:40:09.004Z,100183.92
2023-02-18T00:42:43.061Z,100183.55
2023-02-18T00:45:16.345Z,100182.48
2023-02-18T00:47:51.473Z,100181.59
2023-02-18T00:50:25.084Z,100174.48
2023-02-18T00:52:58.176Z,100174.90
2023-02-18T00:55:32.600Z,100166.70
2023-02-18T00:58:06.248Z,100158.09
2023-02-18T01:00:39.592Z,100170.09
2023-02-18T01:03:13.017Z,100161.68
2023-02-18T01:05:47.915Z,100160.78
2023-02-18T01:08:22.220Z,100162.41
2023-02-18T01:10:56.792Z,100153.45
2023-02-18T01:13:31.082Z,100145.42
2023-02-18T01:16:05.495Z,100139.68
2023-02-18T01:18:39.509Z,100131.84
2023-02-18T01:21:12.669Z,100118.72
2023-02-18T01:23:47.503Z,100109.75
2023-02-18T01:26:21.568Z,100104.28
2023-02-18T01:28:55.141Z,100114.72
2023-02-18T01:31:28.595Z,100102.30
2023-02-18T01:34:03.440Z,100103.27
2023-02-18T01:36:37.920Z,100111.75
2023-02-18T01:39:11.573Z,100118.22
2023-02-18T01:41:45.405Z,100117.01
2023-02-18T01:44:21.202Z,100108.55
2023-02-18T01:46:54.624Z,100102.54
2023-02-18T01:49:34.212Z,100103.44
2023-02-18T01:52:09.413Z,100096.52
2023-02-18T01:54:47.110Z,100080.94
2023-02-18T01:57:23.290Z,100074.46
2023-02-18T01:59:57.942Z,100073.95
2023-02-18T02:02:31.348Z,100071.81
2023-02-18T02:05:04.821Z,100070.38
2023-02-18T02:07:37.830Z,100064.36
2023-02-18T02:10:11.857Z,100064.55
2023-02-18T02:13:03.180Z,100059.66
2023-02-18T02:15:42.683Z,100065.84
2023-02-18T02:18:31.152Z,100060.94
2023-02-18T02:21:42.870Z,100064.30
2023-02-18T02:24:25.285Z,100054.61
2023-02-18T02:27:07.130Z,100058.06
2023-02-18T02:30:16.963Z,100060.39
2023-02-18T02:33:08.321Z,100053.96
2023-02-18T02:36:16.976Z,100057.42
2023-02-18T02:38:59.308Z,100060.52
2023-02-18T02:41:50.006Z,100069.64
2023-02-18T02:44:38.370Z,100066.15
2023-02-18T02:47:13.912Z,100061.34
2023-02-18T02:49:52.682Z,100069.19
2023-02-18T02:52:31.700Z,100064.61
2023-02-18T02:55:07.805Z,100062.94
2023-02-18T02:57:50.852Z,100060.92
2023-02-18T03:00:34.364Z,100068.22
2023-02-18T03:03:16.077Z,100074.62
2023-02-18T03:06:04.630Z,100071.91
2023-02-18T03:09:00.250Z,100071.01
2023-02-18T03:11:37.487Z,100065.66
2023-02-18T03:14:19.351Z,100061.23
2023-02-18T03:17:04.577Z,100057.55
2023-02-18T03:19:42.704Z,100062.06
2023-02-18T03:22:22.184Z,100055.66
2023-02-18T03:24:57.080Z,100047.63
2023-02-18T03:27:47.735Z,100043.23
2023-02-18T03:30:26.833Z,100034.82
2023-02-18T03:33:03.676Z,100025.62
2023-02-18T03:35:38.387Z,100023.06
2023-02-18T03:38:14.851Z,100022.98
2023-02-18T03:40:48.285Z,100018.59
2023-02-18T03:43:21.599Z,100008.90
2023-02-18T03:45:55.338Z,100004.83
2023-02-18T03:48:28.391Z,100003.16
2023-02-18T03:51:01.509Z,100008.44
2023-02-18T03:53:36.042Z,100006.84
2023-02-18T03:56:09.789Z,100006.27
2023-02-18T03:58:43.614Z,100010.80
2023-02-18T04:01:17.106Z,100009.67
2023-02-18T04:03:50.637Z,100011.70
2023-02-18T04:06:25.501Z,100011.38
2023-02-18T04:08:58.720Z,100002.42
2023-02-18T04:11:31.728Z,100002.80
2023-02-18T04:14:05.454Z,99999.47
2023-02-18T04:16:39.153Z,100007.16
2023-02-18T04:19:12.847Z,99999.39
2023-02-18T04:21:45.902Z,99985.70
2023-02-18T04:24:18.978Z,99979.45
2023-02-18T04:26:52.479Z,99981.47
2023-02-18T04:29:25.516Z,99972.73
2023-02-18T04:31:58.809Z,99959.08
2023-02-18T04:34:32.303Z,99956.52
2023-02-18T04:37:05.352Z,99957.22
2023-02-18T04:39:38.665Z,99954.50
2023-02-18T04:42:11.724Z,99949.97
2023-02-18T04:44:47.332Z,99950.78
2023-02-18T04:47:20.291Z,99962.06
2023-02-18T04:49:53.293Z,99962.65
2023-02-18T04:52:26.561Z,99962.30
2023-02-18T04:55:00.111Z,99962.72
2023-02-18T04:57:33.856Z,99972.80
2023-02-18T05:00:08.939Z,99976.88
2023-02-18T05:02:42.247Z,99992.08
2023-02-18T05:05:15.978Z,99991.18
2023-02-18T05:07:49.986Z,99990.95
2023-02-18T05:10:24.425Z,99991.27
2023-02-18T05:12:58.270Z,99983.36
2023-02-18T05:15:31.562Z,99978.70
2023-02-18T05:18:05.648Z,99977.58
2023-02-18T05:20:38.723Z,99977.00
2023-02-18T05:23:11.815Z,99980.22
2023-02-18T05:25:45.597Z,99977.16
2023-02-18T05:28:19.212Z,99974.37
2023-02-18T05:30:52.429Z,99965.17
2023-02-18T05:33:25.575Z,99957.45
2023-02-18T05:35:58.992Z,99960.83
2023-02-18T05:38:32.193Z,99961.14
2023-02-18T05:41:06.566Z,99962.80
2023-02-18T05:43:57.358Z,99962.19
2023-02-18T05:46:31.032Z,99953.53
2023-02-18T05:49:04.514Z,99944.56
2023-02-18T05:51:37.537Z,99955.42
2023-02-18T05:54:10.903Z,99942.27
2023-02-18T05:56:44.040Z,99960.39
2023-02-18T05:59:17.343Z,99950.66
2023-02-18T06:01:51.391Z,99949.38
2023-02-18T06:04:24.511Z,99952.53
2023-02-18T06:06:59.349Z,99945.47
2023-02-18T06:09:32.606Z,99936.86
2023-02-18T06:12:06.814Z,99926.34
2023-02-18T06:14:42.172Z,99924.98
2023-02-18T06:17:16.166Z,99919.04
2023-02-18T06:19:49.951Z,99915.27
2023-02-18T06:22:23.018Z,99897.45
2023-02-18T06:24:56.448Z,99899.10
2023-02-18T06:27:29.799Z,99899.16
2023-02-18T06:30:03.930Z,99901.20
2023-02-18T06:32:37.366Z,99898.17
2023-02-18T06:35:10.949Z,99883.19
2023-02-18T06:37:46.176Z,99881.25
2023-02-18T06:40:19.280Z,99877.41
2023-02-18T06:42:52.328Z,99865.02
2023-02-18T06:45:25.428Z,99865.02
2023-02-18T06:47:58.851Z,99865.91
2023-02-18T06:50:31.859Z,99858.81
2023-02-18T06:53:05.200Z,99846.95
2023-02-18T06:55:38.877Z,99838.36
2023-02-18T06:58:13.367Z,99829.88
2023-02-18T07:00:46.338Z,99828.19
2023-02-18T07:03:20.646Z,99825.52
2023-02-18T07:05:53.951Z,99811.31
2023-02-18T07:08:27.747Z,99811.70
2023-02-18T07:11:00.820Z,99802.33
2023-02-18T07:13:35.953Z,99789.70
2023-02-18T07:16:09.540Z,99792.48
2023-02-18T07:18:43.765Z,99790.05
2023-02-18T07:21:17.656Z,99797.41
2023-02-18T07:23:50.924Z,99788.14
2023-02-18T07:26:24.103Z,99788.81
2023-02-18T07:28:57.189Z,99777.77
2023-02-18T07:31:30.469Z,99774.59
2023-02-18T07:34:03.693Z,99768.64
2023-02-18T07:36:37.756Z,99760.73
2023-02-18T07:39:10.890Z,99757.61
2023-02-18T07:41:44.129Z,99759.84
2023-02-18T07:44:18.749Z,99757.48
2023-02-18T07:46:51.820Z,99750.67
2023-02-18T07:49:25.222Z,99745.86
2023-02-18T07:51:59.248Z,99748.13
2023-02-18T07:54:32.868Z,99739.56
2023-02-18T07:57:06.650Z,99736.94
2023-02-18T07:59:40.211Z,99729.28
2023-02-18T08:02:19.442Z,99722.27
2023-02-18T08:04:53.061Z,99724.08
2023-02-18T08:07:26.277Z,99718.08
2023-02-18T08:09:59.300Z,99715.12
2023-02-18T08:12:32.358Z,99709.70
2023-02-18T08:15:06.118Z,99715.55
2023-02-18T08:17:39.787Z,99702.71
2023-02-18T08:20:13.786Z,99704.68
2023-02-18T08:22:47.270Z,99698.38
2023-02-18T08:25:29.344Z,99690.56
2023-02-18T08:27:56.163Z,99684.62
2023-02-18T08:30:30.164Z,99680.69
2023-02-18T08:33:03.686Z,99682.87
2023-02-18T08:35:38.140Z,99675.31
2023-02-18T08:38:11.255Z,99669.97
2023-02-18T08:40:44.320Z,99659.21
2023-02-18T08:43:18.217Z,99653.32
2023-02-18T08:45:51.426Z,99646.51
2023-02-18T08:48:24.619Z,99638.44
2023-02-18T08:50:58.238Z,99634.72
2023-02-18T08:53:31.167Z,99627.67
2023-02-18T08:56:09.931Z,99627.03
2023-02-18T08:58:43.564Z,99620.23
2023-02-18T09:01:16.973Z,99611.60
2023-02-18T09:03:50.300Z,99615.34
2023-02-18T09:06:23.656Z,99600.94
2023-02-18T09:08:59.032Z,99589.24
2023-02-18T09:11:32.887Z,99600.68
2023-02-18T09:14:06.643Z,99584.86
2023-02-18T09:16:41.206Z,99578.56
2023-02-18T09:19:14.266Z,99584.20
2023-02-18T09:21:47.339Z,99571.08
2023-02-18T09:24:21.353Z,99561.97
2023-02-18T09:26:55.789Z,99559.41
2023-02-18T09:29:28.908Z,99553.63
2023-02-18T09:32:02.950Z,99557.08
2023-02-18T09:34:37.446Z,99545.41
2023-02-18T09:37:16.431Z,99526.88
2023-02-18T09:39:49.603Z,99518.91
2023-02-18T09:42:23.821Z,99506.55
2023-02-18T09:44:59.723Z,99492.77
2023-02-18T09:47:43.729Z,99487.61
2023-02-18T09:50:19.871Z,99484.88
2023-02-18T09:52:53.039Z,99473.80
2023-02-18T09:55:36.692Z,99477.16
2023-02-18T09:58:18.072Z,99482.59
2023-02-18T10:01:13.724Z,99475.37
2023-02-18T10:03:47.856Z,99469.86
2023-02-18T10:06:26.594Z,99459.19
2023-02-18T10:09:01.999Z,99441.83
2023-02-18T10:11:44.307Z,99440.15
2023-02-18T10:14:17.314Z,99438.37
2023-02-18T10:16:50.744Z,99428.63
2023-02-18T10:19:32.735Z,99424.75
2023-02-18T10:22:07.406Z,99413.73
2023-02-18T10:24:43.819Z,99409.22
2023-02-18T10:27:29.728Z,99399.09
2023-02-18T10:30:05.979Z,99391.47
2023-02-18T10:32:41.170Z,99389.80
2023-02-18T10:35:34.922Z,99371.78
2023-02-18T10:38:37.165Z,99370.77
2023-02-18T10:41:19.228Z,99359.45
2023-02-18T10:43:55.650Z,99352.98
2023-02-18T10:46:32.141Z,99345.73
2023-02-18T10:49:34.352Z,99337.13
2023-02-18T10:52:07.915Z,99332.74
2023-02-18T10:54:56.595Z,99321.05
2023-02-18T10:57:29.847Z,99311.61
2023-02-18T11:00:12.224Z,99305.38
2023-02-18T11:02:45.490Z,99300.59
2023-02-18T11:05:24.610Z,99286.55
2023-02-18T11:07:59.235Z,99273.44
2023-02-18T11:10:35.096Z,99269.53
2023-02-18T11:13:09.567Z,99259.36
2023-02-18T11:15:46.171Z,99252.28
2023-02-18T11:18:28.825Z,99239.41
2023-02-18T11:21:09.214Z,99234.09
2023-02-18T11:23:50.914Z,99220.65
2023-02-18T11:26:31.291Z,99207.89
2023-02-18T11:29:24.211Z,99193.60
2023-02-18T11:31:57.669Z,99183.30
2023-02-18T11:34:32.875Z,99187.47
2023-02-18T11:37:12.345Z,99169.56
2023-02-18T11:39:47.119Z,99164.19
2023-02-18T11:42:22.483Z,99158.75
2023-02-18T11:45:00.572Z,99143.85
2023-02-18T11:47:38.559Z,99149.94
2023-02-18T11:50:17.825Z,99155.94
2023-02-18T11:52:52.427Z,99130.75
2023-02-18T11:55:31.230Z,99144.01
2023-02-18T11:58:07.314Z,99120.57
2023-02-18T12:00:45.477Z,99126.77
2023-02-18T12:03:40.282Z,99121.11
2023-02-18T12:06:19.729Z,99112.79
2023-02-18T12:09:28.184Z,99100.05
2023-02-18T12:12:16.002Z,99084.20
2023-02-18T12:14:52.076Z,99091.81
2023-02-18T12:17:51.735Z,99084.72
2023-02-18T12:20:48.710Z,99079.52
2023-02-18T12:23:31.469Z,99076.77
2023-02-18T12:26:26.283Z,99065.02
2023-02-18T12:29:36.154Z,99053.19
2023-02-18T12:32:33.538Z,99042.78
2023-02-18T12:35:21.675Z,99029.97
2023-02-18T12:38:09.850Z,99018.17
2023-02-18T12:40:55.037Z,99006.64
2023-02-18T12:43:50.007Z,98996.82
2023-02-18T12:46:41.371Z,98988.73
2023-02-18T12:49:50.795Z,98978.25
2023-02-18T12:53:00.430Z,98975.78
2023-02-18T12:55:45.313Z,98961.22
2023-02-18T12:58:36.273Z,98960.86
2023-02-18T13:01:24.751Z,98947.47
2023-02-18T13:04:29.409Z,98947.77
2023-02-18T13:07:24.175Z,98940.81
2023-02-18T13:10:15.209Z,98925.88
2023-02-18T13:13:03.632Z,98919.77
2023-02-18T13:15:51.174Z,98910.06
2023-02-18T13:18:28.002Z,98901.05
2023-02-18T13:21:05.229Z,98897.70
2023-02-18T13:23:43.064Z,98894.42
2023-02-18T13:26:16.657Z,98878.02
2023-02-18T13:28:58.994Z,98860.20
2023-02-18T13:32:09.967Z,98857.15
2023-02-18T13:35:00.217Z,98861.47
2023-02-18T13:37:36.390Z,98846.98
2023-02-18T13:40:12.647Z,98854.92
2023-02-18T13:42:45.817Z,98835.52
2023-02-18T13:45:27.442Z,98842.94
2023-02-18T13:48:01.264Z,98837.31
2023-02-18T13:50:43.474Z,98862.17
2023-02-18T13:53:19.195Z,98844.52
2023-02-18T13:56:03.013Z,98844.22
2023-02-18T13:58:42.153Z,98842.16
2023-02-18T14:01:18.492Z,98830.17
2023-02-18T14:03:57.371Z,98818.31
2023-02-18T14:06:32.800Z,98830.38
2023-02-18T14:09:19.093Z,98827.03
2023-02-18T14:11:58.213Z,98820.40
2023-02-18T14:14:36.257Z,98811.02
2023-02-18T14:17:22.650Z,98812.67
2023-02-18T14:20:04.676Z,98800.61
2023-02-18T14:22:49.382Z,98800.98
2023-02-18T14:25:25.725Z,98795.83
2023-02-18T14:28:00.279Z,98801.09
2023-02-18T14:30:37.416Z,98802.48
2023-02-18T14:33:13.669Z,98790.89
2023-02-18T14:35:56.159Z,98794.86
2023-02-18T14:38:36.385Z,98794.59
2023-02-18T14:41:30.601Z,98785.68
2023-02-18T14:44:12.699Z,98793.62
2023-02-18T14:47:01.209Z,98796.27
2023-02-18T14:49:51.360Z,98795.18
2023-02-18T14:52:39.628Z,98790.64
2023-02-18T14:55:30.184Z,98799.35
2023-02-18T14:58:05.839Z,98792.64
2023-02-18T15:00:43.011Z,98793.62
2023-02-18T15:03:17.905Z,98797.40
2023-02-18T15:05:52.455Z,98797.30
2023-02-18T15:08:27.266Z,98793.74
2023-02-18T15:11:06.107Z,98790.59
2023-02-18T15:13:44.577Z,98793.27
2023-02-18T15:16:32.720Z,98791.57
2023-02-18T15:19:13.470Z,98794.15
2023-02-18T15:21:50.507Z,98786.05
2023-02-18T15:24:32.755Z,98792.48
2023-02-18T15:27:20.240Z,98799.03
2023-02-18T15:29:55.780Z,98794.86
2023-02-18T15:32:30.088Z,98798.93
2023-02-18T15:35:04.750Z,98801.81
2023-02-18T15:37:37.818Z,98792.69
2023-02-18T15:40:18.102Z,98803.30
2023-02-18T15:42:52.614Z,98798.45
2023-02-18T15:45:29.075Z,98798.65
2023-02-18T15:48:02.393Z,98795.45
2023-02-18T15:50:41.163Z,98807.77
2023-02-18T15:53:16.538Z,98794.19
2023-02-18T15:55:53.732Z,98798.94
2023-02-18T15:58:30.044Z,98803.31
2023-02-18T16:01:08.060Z,98805.38
2023-02-18T16:03:46.909Z,98809.25
2023-02-18T16:06:27.047Z,98806.67
2023-02-18T16:09:09.403Z,98814.00
2023-02-18T16:11:44.364Z,98819.26
2023-02-18T16:14:36.464Z,98809.25
2023-02-18T16:17:29.079Z,98819.26
2023-02-18T16:20:05.982Z,98825.80
2023-02-18T16:22:42.345Z,98819.36
2023-02-18T16:25:27.263Z,98814.20
2023-02-18T16:28:06.334Z,98813.92
2023-02-18T16:30:40.885Z,98819.08
2023-02-18T16:33:13.889Z,98824.23
2023-02-18T16:35:50.298Z,98829.50
2023-02-18T16:38:23.872Z,98832.55
2023-02-18T16:40:56.984Z,98827.30
2023-02-18T16:43:31.848Z,98832.55
2023-02-18T16:46:12.086Z,98829.97
2023-02-18T16:48:48.104Z,98833.56
2023-02-18T16:51:27.877Z,98834.45
2023-02-18T16:54:00.932Z,98842.66
2023-02-18T16:56:35.934Z,98839.20
2023-02-18T16:59:09.029Z,98842.28
2023-02-18T17:01:46.471Z,98844.45
2023-02-18T17:04:20.546Z,98850.39
2023-02-18T17:06:54.819Z,98852.09
2023-02-18T17:09:28.413Z,98848.22
2023-02-18T17:12:03.510Z,98845.23
2023-02-18T17:14:37.092Z,98851.69
2023-02-18T17:17:13.844Z,98849.20
2023-02-18T17:19:46.871Z,98850.91
2023-02-18T17:22:19.888Z,98857.45
2023-02-18T17:24:53.379Z,98862.10
2023-02-18T17:27:26.589Z,98864.67
2023-02-18T17:30:00.101Z,98863.80
2023-02-18T17:32:34.019Z,98851.31
2023-02-18T17:35:07.902Z,98856.84
2023-02-18T17:37:41.021Z,98856.77
2023-02-18T17:40:19.906Z,98848.63
2023-02-18T17:42:54.161Z,98849.04
2023-02-18T17:45:38.521Z,98851.89
2023-02-18T17:48:11.645Z,98851.31
2023-02-18T17:50:44.858Z,98850.50
2023-02-18T17:53:19.315Z,98849.42
2023-02-18T17:55:52.591Z,98854.67
2023-02-18T17:58:25.631Z,98846.06
2023-02-18T18:00:59.607Z,98847.72
2023-02-18T18:03:33.257Z,98849.52
2023-02-18T18:06:08.037Z,98844.77
2023-02-18T18:08:41.851Z,98840.49
2023-02-18T18:11:20.554Z,98855.56
2023-02-18T18:13:54.079Z,98852.50
2023-02-18T18:16:27.497Z,98856.27
2023-02-18T18:19:00.860Z,98856.27
2023-02-18T18:21:36.037Z,98853.70
2023-02-18T18:24:13.196Z,98859.73
2023-02-18T18:26:47.000Z,98869.06
2023-02-18T18:29:20.546Z,98864.58
2023-02-18T18:31:54.285Z,98866.55
2023-02-18T18:34:27.286Z,98865.67
2023-02-18T18:37:00.194Z,98867.47
2023-02-18T18:39:33.183Z,98864.89
2023-02-18T18:42:06.948Z,98859.33
2023-02-18T18:44:41.810Z,98858.14
2023-02-18T18:47:14.707Z,98851.89
2023-02-18T18:49:48.327Z,98839.52
2023-02-18T18:52:21.776Z,98839.11
2023-02-18T18:54:55.425Z,98844.56
2023-02-18T18:57:28.647Z,98842.77
2023-02-18T19:00:01.700Z,98851.02
2023-02-18T19:02:35.045Z,98863.09
2023-02-18T19:05:10.262Z,98859.22
2023-02-18T19:07:43.867Z,98861.70
2023-02-18T19:10:18.126Z,98857.83
2023-02-18T19:12:51.234Z,98854.68
2023-02-18T19:15:24.499Z,98857.94
2023-02-18T19:17:58.050Z,98859.73
2023-02-18T19:20:33.062Z,98861.91
2023-02-18T19:23:05.822Z,98862.41
2023-02-18T19:25:39.868Z,98859.33
2023-02-18T19:28:14.002Z,98852.88
2023-02-18T19:30:47.540Z,98861.80
2023-02-18T19:33:20.336Z,98862.99
2023-02-18T19:35:53.007Z,98869.84
2023-02-18T19:38:26.583Z,98859.91
2023-02-18T19:40:59.505Z,98871.03
2023-02-18T19:43:32.122Z,98867.95
2023-02-18T19:46:13.569Z,98864.38
2023-02-18T19:48:52.439Z,98863.88
2023-02-18T19:51:26.342Z,98863.40
2023-02-18T19:53:59.168Z,98857.84
2023-02-18T19:56:33.123Z,98867.74
2023-02-18T19:59:05.931Z,98864.38
2023-02-18T20:01:39.431Z,98866.45
2023-02-18T20:04:12.227Z,98869.34
2023-02-18T20:06:45.014Z,98865.77
2023-02-18T20:09:17.615Z,98866.05
2023-02-18T20:11:51.574Z,98874.08
2023-02-18T20:14:25.973Z,98869.23
2023-02-18T20:16:59.403Z,98869.23
2023-02-18T20:19:32.724Z,98864.45
2023-02-18T20:22:07.776Z,98871.30
2023-02-18T20:24:41.922Z,98874.66
2023-02-18T20:27:14.876Z,98877.64
2023-02-18T20:29:47.553Z,98878.42
2023-02-18T20:32:20.366Z,98875.95
2023-02-18T20:34:53.826Z,98875.47
2023-02-18T20:37:26.733Z,98868.92
2023-02-18T20:39:59.869Z,98875.73
2023-02-18T20:42:34.130Z,98877.84
2023-02-18T20:45:06.833Z,98871.30
2023-02-18T20:47:40.373Z,98872.95
2023-02-18T20:50:16.172Z,98875.83
2023-02-18T20:52:49.772Z,98881.97
2023-02-18T20:55:22.690Z,98884.66
2023-02-18T20:57:56.006Z,98884.55
2023-02-18T21:00:28.999Z,98883.27
2023-02-18T21:03:02.039Z,98883.67
2023-02-18T21:05:34.804Z,98882.78
2023-02-18T21:08:09.498Z,98877.63
2023-02-18T21:10:42.791Z,98878.04
2023-02-18T21:13:15.687Z,98885.84
2023-02-18T21:15:48.927Z,98886.25
2023-02-18T21:18:22.205Z,98886.14
2023-02-18T21:20:54.963Z,98890.52
2023-02-18T21:23:28.969Z,98885.77
2023-02-18T21:26:09.835Z,98892.21
2023-02-18T21:28:42.636Z,98890.01
2023-02-18T21:31:24.103Z,98896.34
2023-02-18T21:33:56.742Z,98892.38
2023-02-18T21:36:30.560Z,98890.51
2023-02-18T21:39:05.837Z,98890.51
2023-02-18T21:41:41.405Z,98897.32
2023-02-18T21:44:14.288Z,98899.90
2023-02-18T21:46:46.904Z,98901.08
2023-02-18T21:49:19.775Z,98901.38
2023-02-18T21:52:00.362Z,98910.41
2023-02-18T21:54:37.608Z,98918.13
2023-02-18T21:57:14.050Z,98918.03
2023-02-18T21:59:47.479Z,98911.08
2023-02-18T22:02:25.581Z,98916.13
2023-02-18T22:04:58.843Z,98917.41
2023-02-18T22:07:31.416Z,98919.88
2023-02-18T22:10:04.089Z,98922.09
2023-02-18T22:12:37.386Z,98922.09
2023-02-18T22:15:10.475Z,98922.19
2023-02-18T22:17:43.125Z,98926.94
2023-02-18T22:20:15.856Z,98926.84
2023-02-18T22:22:49.199Z,98922.97
2023-02-18T22:25:21.974Z,98925.44
2023-02-18T22:27:54.635Z,98928.02
2023-02-18T22:30:27.660Z,98920.59
2023-02-18T22:33:01.020Z,98918.69
2023-02-18T22:35:35.311Z,98919.59
2023-02-18T22:38:08.106Z,98929.50
2023-02-18T22:40:41.137Z,98923.84
2023-02-18T22:43:14.065Z,98931.67
2023-02-18T22:45:46.705Z,98926.82
2023-02-18T22:48:20.177Z,98932.38
2023-02-18T22:50:53.044Z,98926.31
2023-02-18T22:53:26.137Z,98935.63
2023-02-18T22:56:04.141Z,98922.74
2023-02-18T22:58:37.327Z,98928.52
2023-02-18T23:01:25.142Z,98931.56
2023-02-18T23:04:00.129Z,98931.27
2023-02-18T23:06:33.435Z,98927.03
2023-02-18T23:09:07.917Z,98928.69
2023-02-18T23:11:40.885Z,98930.78
2023-02-18T23:14:19.432Z,98930.78
2023-02-18T23:17:17.393Z,98935.13
2023-02-18T23:19:52.297Z,98927.40
2023-02-18T23:22:32.676Z,98925.23
2023-02-18T23:25:05.754Z,98930.48
2023-02-18T23:27:38.674Z,98929.20
2023-02-18T23:30:12.876Z,98935.34
2023-02-18T23:32:45.832Z,98935.34
2023-02-18T23:35:18.488Z,98935.64
2023-02-18T23:38:03.746Z,98940.39
2023-02-18T23:40:36.517Z,98941.30
2023-02-18T23:43:09.079Z,98938.62
2023-02-18T23:45:42.303Z,98940.28
2023-02-18T23:48:17.335Z,98942.48
2023-02-18T23:50:50.109Z,98940.28
2023-02-18T23:53:26.516Z,98942.86
2023-02-18T23:56:17.427Z,98932.55
2023-02-18T23:58:52.931Z,98936.05
